createdAt,value
2018-08-22T00:00:43.422Z,100.0
2018-08-22T00:01:44.961Z,100.0
2018-08-22T00:02:46.740Z,100.0
2018-08-22T00:03:48.175Z,100.0
2018-08-22T00:04:49.740Z,100.0
2018-08-22T00:05:51.159Z,100.0
2018-08-22T00:06:52.607Z,100.0
2018-08-22T00:07:54.282Z,100.0
2018-08-22T00:08:55.793Z,100.0
2018-08-22T00:09:57.182Z,100.0
2018-08-22T00:10:58.798Z,100.0
2018-08-22T00:12:00.297Z,100.0
2018-08-22T00:13:01.819Z,100.0
2018-08-22T00:14:03.578Z,100.0
2018-08-22T00:15:05.082Z,100.0
2018-08-22T00:16:06.660Z,100.0
2018-08-22T00:17:08.268Z,100.0
2018-08-22T00:18:09.733Z,100.0
2018-08-22T00:19:11.621Z,100.0
2018-08-22T00:20:13.265Z,100.0
2018-08-22T00:21:14.712Z,100.0
2018-08-22T00:22:16.186Z,100.0
2018-08-22T00:23:17.730Z,100.0
2018-08-22T00:24:19.203Z,100.0
2018-08-22T00:25:20.682Z,100.0
2018-08-22T00:26:22.310Z,100.0
2018-08-22T00:27:23.778Z,100.0
2018-08-22T00:28:25.198Z,100.0
2018-08-22T00:29:26.751Z,100.0
2018-08-22T00:30:28.272Z,100.0
2018-08-22T00:31:30.181Z,100.0
2018-08-22T00:32:31.894Z,100.0
2018-08-22T00:33:33.367Z,100.0
2018-08-22T00:34:35.215Z,100.0
2018-08-22T00:35:36.710Z,100.0
2018-08-22T00:36:38.277Z,100.0
2018-08-22T00:37:39.728Z,100.0
2018-08-22T00:38:41.157Z,100.0
2018-08-22T00:39:42.825Z,100.0
2018-08-22T00:40:44.271Z,100.0
2018-08-22T00:41:45.740Z,100.0
2018-08-22T00:42:47.359Z,100.0
2018-08-22T00:43:48.796Z,100.0
2018-08-22T00:44:50.242Z,100.0
2018-08-22T00:45:51.717Z,100.0
2018-08-22T00:46:53.184Z,100.0
2018-08-22T00:47:54.753Z,100.0
2018-08-22T00:48:56.209Z,100.0
2018-08-22T00:49:58.051Z,100.0
2018-08-22T00:50:59.900Z,100.0
2018-08-22T00:52:01.353Z,100.0
2018-08-22T00:53:02.812Z,100.0
2018-08-22T00:54:04.407Z,100.0
2018-08-22T00:55:05.832Z,100.0
2018-08-22T00:56:07.299Z,100.0
2018-08-22T00:57:08.916Z,100.0
2018-08-22T00:58:10.366Z,100.0
2018-08-22T00:59:11.814Z,100.0
2018-08-22T01:00:13.443Z,100.0
2018-08-22T01:01:14.884Z,100.0
2018-08-22T01:02:16.360Z,100.0
2018-08-22T01:03:18.045Z,100.0
2018-08-22T01:04:19.487Z,100.0
2018-08-22T01:05:21.063Z,100.0
2018-08-22T01:06:22.488Z,100.0
2018-08-22T01:07:24.205Z,100.0
2018-08-22T01:08:26.327Z,100.0
2018-08-22T01:09:27.802Z,100.0
2018-08-22T01:10:29.851Z,100.0
2018-08-22T01:11:31.531Z,100.0
2018-08-22T01:12:35.241Z,100.0
2018-08-22T01:13:36.890Z,100.0
2018-08-22T01:14:38.344Z,100.0
2018-08-22T01:15:42.495Z,100.0
2018-08-22T01:16:43.947Z,100.0
2018-08-22T01:17:45.359Z,100.0
2018-08-22T01:18:46.964Z,100.0
2018-08-22T01:19:48.400Z,100.0
2018-08-22T01:20:49.856Z,100.0
2018-08-22T01:22:00.874Z,100.0
2018-08-22T01:23:02.976Z,100.0
2018-08-22T01:24:04.288Z,100.0
2018-08-22T01:25:05.843Z,100.0
2018-08-22T01:26:07.327Z,100.0
2018-08-22T01:27:08.984Z,100.0
2018-08-22T01:28:10.388Z,100.0
2018-08-22T01:29:11.816Z,100.0
2018-08-22T01:30:16.820Z,100.0
2018-08-22T01:31:21.511Z,100.0
2018-08-22T01:32:22.852Z,100.0
2018-08-22T01:33:26.845Z,100.0
2018-08-22T01:34:28.340Z,100.0
2018-08-22T01:35:30.007Z,100.0
2018-08-22T01:37:43.825Z,100.0
2018-08-22T01:38:45.485Z,100.0
2018-08-22T01:39:47.153Z,100.0
2018-08-22T01:40:48.612Z,100.0
2018-08-22T01:41:50.211Z,100.0
2018-08-22T01:42:51.668Z,100.0
2018-08-22T01:43:53.311Z,100.0
2018-08-22T01:44:54.740Z,100.0
2018-08-22T01:45:56.345Z,100.0
2018-08-22T01:46:57.766Z,100.0
2018-08-22T01:47:59.207Z,100.0
2018-08-22T01:49:00.935Z,100.0
2018-08-22T01:50:02.396Z,100.0
2018-08-22T01:51:03.879Z,100.0
2018-08-22T01:52:09.650Z,100.0
2018-08-22T01:53:11.192Z,100.0
2018-08-22T01:54:12.703Z,100.0
2018-08-22T01:55:14.855Z,100.0
2018-08-22T01:56:16.374Z,100.0
2018-08-22T01:57:17.935Z,100.0
2018-08-22T01:58:19.401Z,100.0
2018-08-22T01:59:20.825Z,100.0
2018-08-22T02:00:22.467Z,100.0
2018-08-22T02:01:23.933Z,100.0
2018-08-22T02:02:25.370Z,100.0
2018-08-22T02:03:27.072Z,100.0
2018-08-22T02:04:28.541Z,100.0
2018-08-22T02:05:30.015Z,100.0
2018-08-22T02:06:31.546Z,100.0
2018-08-22T02:07:32.995Z,100.0
2018-08-22T02:08:34.426Z,100.0
2018-08-22T02:09:36.084Z,100.0
2018-08-22T02:10:37.512Z,100.0
2018-08-22T02:11:39.823Z,100.0
2018-08-22T02:12:41.336Z,100.0
2018-08-22T02:13:42.879Z,100.0
2018-08-22T02:14:44.339Z,100.0
2018-08-22T02:15:45.929Z,100.0
2018-08-22T02:16:48.136Z,100.0
2018-08-22T02:17:49.869Z,100.0
2018-08-22T02:18:51.305Z,100.0
2018-08-22T02:19:52.901Z,100.0
2018-08-22T02:20:54.355Z,100.0
2018-08-22T02:21:56.007Z,100.0
2018-08-22T02:22:57.437Z,100.0
2018-08-22T02:23:58.900Z,100.0
2018-08-22T02:25:00.583Z,100.0
2018-08-22T02:26:02.014Z,100.0
2018-08-22T02:27:03.463Z,100.0
2018-08-22T02:28:05.127Z,100.0
2018-08-22T02:29:06.958Z,100.0
2018-08-22T02:30:09.332Z,100.0
2018-08-22T02:31:13.431Z,100.0
2018-08-22T02:32:18.228Z,100.0
2018-08-22T02:33:20.225Z,100.0
2018-08-22T09:37:35.218Z,52.8
2018-08-22T09:38:36.621Z,50.4
2018-08-22T09:39:58.387Z,47.4
2018-08-22T09:40:59.777Z,47.8
2018-08-22T09:46:18.888Z,49.5
2018-08-22T09:47:20.297Z,49.8
2018-08-22T09:48:42.050Z,50.2
2018-08-22T09:49:43.480Z,51.8
2018-08-22T09:50:44.904Z,51.5
2018-08-22T09:51:46.315Z,51.7
2018-08-22T09:52:47.781Z,51.9
2018-08-22T09:53:49.193Z,51.8
2018-08-22T09:54:50.668Z,50.8
2018-08-22T09:55:52.072Z,50.4
2018-08-22T09:56:53.548Z,50.2
2018-08-22T09:57:54.956Z,50.0
2018-08-22T09:58:56.433Z,50.1
2018-08-22T09:59:57.890Z,48.1
2018-08-22T10:00:59.336Z,47.6
2018-08-22T10:02:00.717Z,47.3
2018-08-22T10:03:02.215Z,47.9
2018-08-22T10:04:03.625Z,46.9
2018-08-22T10:05:05.070Z,44.1
2018-08-22T10:06:06.482Z,43.4
2018-08-22T10:07:08.014Z,41.7
2018-08-22T10:08:09.741Z,40.1
2018-08-22T10:09:11.244Z,35.0
2018-08-22T10:10:13.041Z,34.7
2018-08-22T10:11:14.534Z,34.1
2018-08-22T10:12:15.942Z,33.8
2018-08-22T10:13:17.414Z,32.8
2018-08-22T10:14:18.925Z,32.4
2018-08-22T10:15:20.325Z,29.4
2018-08-22T10:16:21.940Z,29.3
2018-08-22T10:17:23.393Z,29.8
2018-08-22T10:18:24.757Z,30.7
2018-08-22T10:19:26.257Z,31.6
2018-08-22T10:20:27.671Z,32.6
2018-08-22T10:21:29.074Z,33.7
2018-08-22T10:22:30.584Z,35.0
2018-08-22T10:23:32.002Z,36.7
2018-08-22T10:24:33.402Z,36.7
2018-08-22T10:25:34.976Z,36.1
2018-08-22T10:26:36.392Z,36.2
2018-08-22T10:27:37.988Z,37.9
2018-08-22T10:28:39.399Z,38.6
2018-08-22T10:29:40.869Z,41.0
2018-08-22T10:30:42.282Z,41.2
2018-08-22T10:31:43.761Z,42.6
2018-08-22T10:32:45.237Z,42.8
2018-08-22T10:33:46.644Z,42.5
2018-08-22T10:34:48.055Z,43.4
2018-08-22T10:35:49.476Z,43.0
2018-08-22T10:36:50.955Z,44.1
2018-08-22T10:37:52.372Z,42.7
2018-08-22T10:38:53.801Z,43.1
2018-08-22T10:39:55.668Z,43.9
2018-08-22T10:40:57.072Z,43.6
2018-08-22T10:41:58.572Z,44.0
2018-08-22T10:42:59.984Z,44.3
2018-08-22T10:44:01.449Z,46.2
2018-08-22T10:45:02.871Z,45.8
2018-08-22T10:46:04.707Z,45.0
2018-08-22T10:47:06.503Z,45.3
2018-08-22T10:48:08.043Z,45.2
2018-08-22T10:49:09.445Z,45.1
2018-08-22T10:50:10.910Z,44.4
2018-08-22T10:51:12.325Z,43.7
2018-08-22T10:52:13.792Z,42.7
2018-08-22T10:53:15.234Z,42.9
2018-08-22T10:54:16.687Z,41.7
2018-08-22T10:55:18.149Z,43.7
2018-08-22T10:56:19.530Z,44.4
2018-08-22T10:57:20.999Z,42.9
2018-08-22T10:58:22.408Z,42.8
2018-08-22T10:59:23.881Z,43.6
2018-08-22T11:00:25.611Z,44.5
2018-08-22T11:01:27.021Z,44.2
2018-08-22T11:02:28.429Z,44.4
2018-08-22T11:03:30.091Z,43.8
2018-08-22T11:04:31.490Z,43.8
2018-08-22T11:05:32.908Z,43.7
2018-08-22T11:06:34.375Z,44.3
2018-08-22T11:07:35.784Z,45.1
2018-08-22T11:08:37.252Z,45.4
2018-08-22T11:09:38.658Z,42.9
2018-08-22T11:10:40.071Z,42.4
2018-08-22T11:11:41.576Z,43.0
2018-08-22T11:12:42.988Z,43.8
2018-08-22T11:13:44.401Z,41.8
2018-08-22T11:14:45.898Z,42.5
2018-08-22T11:15:47.373Z,42.9
2018-08-22T11:16:48.719Z,44.0
2018-08-22T11:17:50.605Z,45.1
2018-08-22T11:18:52.014Z,46.9
2018-08-22T11:19:53.801Z,47.7
2018-08-22T11:20:55.359Z,47.9
2018-08-22T11:21:56.771Z,47.3
2018-08-22T11:22:58.220Z,46.4
2018-08-22T11:23:59.694Z,46.8
2018-08-22T11:25:01.117Z,48.0
2018-08-22T11:26:02.513Z,47.7
2018-08-22T11:27:03.999Z,47.4
2018-08-22T11:28:05.411Z,46.7
2018-08-22T11:29:06.880Z,47.3
2018-08-22T11:30:08.291Z,47.9
2018-08-22T11:31:09.776Z,48.5
2018-08-22T11:32:11.183Z,48.2
2018-08-22T11:33:12.655Z,48.2
2018-08-22T11:34:14.075Z,49.2
2018-08-22T11:35:15.524Z,48.4
2018-08-22T11:36:16.939Z,48.5
2018-08-22T11:37:18.348Z,49.3
2018-08-22T11:38:19.870Z,49.3
2018-08-22T11:39:21.285Z,48.1
2018-08-22T11:40:22.710Z,46.9
2018-08-22T11:41:24.179Z,46.7
2018-08-22T11:42:25.597Z,47.6
2018-08-22T11:43:27.001Z,48.4
2018-08-22T11:44:28.487Z,48.2
2018-08-22T11:45:29.927Z,48.3
2018-08-22T11:46:31.338Z,49.3
2018-08-22T11:47:32.816Z,50.1
2018-08-22T11:48:34.226Z,51.7
2018-08-22T11:49:35.637Z,51.5
2018-08-22T11:50:37.136Z,51.3
2018-08-22T11:51:38.933Z,51.6
2018-08-22T11:52:40.420Z,52.0
2018-08-22T11:53:41.839Z,51.1
2018-08-22T11:54:43.306Z,51.4
2018-08-22T11:55:44.721Z,51.3
2018-08-22T11:56:47.210Z,51.5
2018-08-22T11:57:48.627Z,51.8
2018-08-22T11:58:50.090Z,52.0
2018-08-22T11:59:51.495Z,51.7
2018-08-22T12:00:52.970Z,52.0
2018-08-22T12:01:54.432Z,51.6
2018-08-22T12:02:55.853Z,51.5
2018-08-22T12:03:57.260Z,50.9
2018-08-22T12:04:58.733Z,50.6
2018-08-22T12:06:00.141Z,50.1
2018-08-22T12:07:01.612Z,51.4
2018-08-22T12:08:03.022Z,52.1
2018-08-22T12:09:04.493Z,51.9
2018-08-22T12:10:05.904Z,51.8
2018-08-22T12:11:07.494Z,51.4
2018-08-22T12:12:08.896Z,51.0
2018-08-22T12:13:10.463Z,51.7
2018-08-22T12:14:11.873Z,49.7
2018-08-22T12:15:13.343Z,48.2
2018-08-22T12:16:14.818Z,49.7
2018-08-22T12:17:16.225Z,51.0
2018-08-22T12:18:17.678Z,52.1
2018-08-22T12:19:19.107Z,52.6
2018-08-22T12:20:20.517Z,53.2
2018-08-22T12:21:21.986Z,53.5
2018-08-22T12:22:23.398Z,53.3
2018-08-22T12:23:25.005Z,54.9
2018-08-22T12:24:26.387Z,54.9
2018-08-22T12:25:27.952Z,54.1
2018-08-22T12:26:29.364Z,53.5
2018-08-22T12:27:30.829Z,54.2
2018-08-22T12:28:32.243Z,54.2
2018-08-22T12:29:33.717Z,54.2
2018-08-22T12:30:35.123Z,54.2
2018-08-22T12:31:36.607Z,54.2
2018-08-22T12:32:38.015Z,54.3
2018-08-22T12:33:39.483Z,54.4
2018-08-22T12:34:40.890Z,53.8
2018-08-22T12:35:42.362Z,53.6
2018-08-22T12:36:43.771Z,54.4
2018-08-22T12:37:45.219Z,54.3
2018-08-22T12:38:46.682Z,53.2
2018-08-22T12:39:48.092Z,53.7
2018-08-22T12:40:49.496Z,55.8
2018-08-22T12:41:51.012Z,55.7
2018-08-22T12:42:52.419Z,55.0
2018-08-22T12:43:54.204Z,55.8
2018-08-22T12:44:55.740Z,56.2
2018-08-22T12:45:57.180Z,56.5
2018-08-22T12:46:58.569Z,56.4
2018-08-22T12:48:00.061Z,56.4
2018-08-22T12:49:01.468Z,53.9
2018-08-22T12:50:02.943Z,53.8
2018-08-22T12:51:04.350Z,54.7
2018-08-22T12:52:05.820Z,54.5
2018-08-22T12:53:07.219Z,55.1
2018-08-22T12:54:08.701Z,56.9
2018-08-22T12:55:10.161Z,56.2
2018-08-22T12:56:11.783Z,55.0
2018-08-22T12:57:13.215Z,55.5
2018-08-22T12:58:14.592Z,56.3
2018-08-22T12:59:16.106Z,56.2
2018-08-22T13:00:17.522Z,55.7
2018-08-22T13:01:18.925Z,55.6
2018-08-22T13:02:20.427Z,55.5
2018-08-22T13:03:21.827Z,55.7
2018-08-22T13:04:23.246Z,55.4
2018-08-22T13:05:24.750Z,55.8
2018-08-22T13:06:26.285Z,55.0
2018-08-22T13:07:27.692Z,56.0
2018-08-22T13:08:29.279Z,54.6
2018-08-22T13:09:30.845Z,56.2
2018-08-22T13:10:32.248Z,54.8
2018-08-22T13:11:33.838Z,54.8
2018-08-22T13:12:35.582Z,54.0
2018-08-22T13:13:36.988Z,52.8
2018-08-22T13:14:38.917Z,51.4
2018-08-22T13:15:40.701Z,51.6
2018-08-22T13:16:42.113Z,53.2
2018-08-22T13:17:43.679Z,54.2
2018-08-22T13:18:45.084Z,54.8
2018-08-22T13:19:46.563Z,55.8
2018-08-22T13:20:47.958Z,56.7
2018-08-22T13:21:49.362Z,56.8
2018-08-22T13:22:50.876Z,56.8
2018-08-22T13:23:52.285Z,56.3
2018-08-22T13:24:53.685Z,56.6
2018-08-22T13:25:55.206Z,56.1
2018-08-22T13:26:56.611Z,55.3
2018-08-22T13:27:58.018Z,54.8
2018-08-22T13:28:59.543Z,56.3
2018-08-22T13:30:00.957Z,55.9
2018-08-22T13:31:02.353Z,56.1
2018-08-22T13:32:03.917Z,56.8
2018-08-22T13:33:05.321Z,56.3
2018-08-22T13:34:07.004Z,55.5
2018-08-22T13:35:08.408Z,53.9
2018-08-22T13:36:10.070Z,54.7
2018-08-22T13:37:11.420Z,55.2
2018-08-22T13:38:12.894Z,57.0
2018-08-22T13:39:14.298Z,56.8
2018-08-22T13:40:15.849Z,55.8
2018-08-22T13:41:17.231Z,54.2
2018-08-22T13:42:18.667Z,55.1
2018-08-22T13:43:20.065Z,55.2
2018-08-22T13:44:21.681Z,56.1
2018-08-22T13:45:23.083Z,56.2
2018-08-22T13:46:24.623Z,55.0
2018-08-22T13:47:26.027Z,54.6
2018-08-22T13:48:27.503Z,54.3
2018-08-22T13:49:28.910Z,54.6
2018-08-22T13:50:30.385Z,55.0
2018-08-22T13:51:31.790Z,55.7
2018-08-22T13:52:33.194Z,56.1
2018-08-22T13:53:34.705Z,56.2
2018-08-22T13:54:36.111Z,55.8
2018-08-22T13:55:37.517Z,55.8
2018-08-22T13:56:39.102Z,56.9
2018-08-22T13:57:40.890Z,56.2
2018-08-22T13:58:42.318Z,55.7
2018-08-22T13:59:43.876Z,56.3
2018-08-22T14:00:45.277Z,57.0
2018-08-22T14:01:46.763Z,56.4
2018-08-22T14:02:48.362Z,56.2
2018-08-22T14:03:49.775Z,56.8
2018-08-22T14:04:51.445Z,56.7
2018-08-22T14:05:52.900Z,57.2
2018-08-22T14:06:54.542Z,57.3
2018-08-22T14:07:55.946Z,56.8
2018-08-22T14:08:57.350Z,57.1
2018-08-22T14:09:58.906Z,57.9
2018-08-22T14:11:00.261Z,58.5
2018-08-22T14:12:01.669Z,57.9
2018-08-22T14:13:03.215Z,56.0
2018-08-22T14:14:04.627Z,55.7
2018-08-22T14:15:06.276Z,55.5
2018-08-22T14:16:07.687Z,54.9
2018-08-22T14:17:09.348Z,56.0
2018-08-22T14:18:10.751Z,56.7
2018-08-22T14:19:12.439Z,56.7
2018-08-22T14:20:13.847Z,57.2
2018-08-22T14:21:15.519Z,56.6
2018-08-22T14:22:16.964Z,56.4
2018-08-22T14:23:18.360Z,57.1
2018-08-22T14:24:20.044Z,57.7
2018-08-22T14:25:21.448Z,58.3
2018-08-22T14:26:22.859Z,57.7
2018-08-22T14:27:24.396Z,56.9
2018-08-22T14:28:25.789Z,56.4
2018-08-22T14:29:27.194Z,56.6
2018-08-22T14:30:28.690Z,56.7
2018-08-22T14:31:30.094Z,55.9
2018-08-22T14:32:31.502Z,56.4
2018-08-22T14:33:33.025Z,56.7
2018-08-22T14:34:34.427Z,56.6
2018-08-22T14:35:36.099Z,57.9
2018-08-22T14:36:37.893Z,56.9
2018-08-22T14:37:39.417Z,56.9
2018-08-22T14:38:40.822Z,57.4
2018-08-22T14:39:42.473Z,57.5
2018-08-22T14:40:43.883Z,57.5
2018-08-22T14:41:45.575Z,57.6
2018-08-22T14:42:46.978Z,57.1
2018-08-22T14:43:48.644Z,56.8
2018-08-22T14:44:50.101Z,56.6
2018-08-22T14:45:51.728Z,56.9
2018-08-22T14:46:53.142Z,57.6
2018-08-22T14:47:54.815Z,58.0
2018-08-22T14:48:56.222Z,58.2
2018-08-22T14:49:57.642Z,57.4
2018-08-22T14:50:59.134Z,57.6
2018-08-22T14:52:00.542Z,58.0
2018-08-22T14:53:01.946Z,56.1
2018-08-22T14:54:03.486Z,56.1
2018-08-22T14:55:04.898Z,56.7
2018-08-22T14:56:06.401Z,57.6
2018-08-22T14:57:08.005Z,56.9
2018-08-22T14:58:09.410Z,57.9
2018-08-22T14:59:10.823Z,57.8
2018-08-22T15:00:12.511Z,56.6
2018-08-22T15:01:13.916Z,56.1
2018-08-22T15:02:15.433Z,56.0
2018-08-22T15:03:17.212Z,55.3
2018-08-22T15:04:18.437Z,55.4
2018-08-22T15:05:19.846Z,56.4
2018-08-22T15:06:21.353Z,56.8
2018-08-22T15:07:22.760Z,57.5
2018-08-22T15:08:24.166Z,56.7
2018-08-22T15:09:25.681Z,57.4
2018-08-22T15:10:27.083Z,58.1
2018-08-22T15:11:28.761Z,57.9
2018-08-22T15:12:30.168Z,58.0
2018-08-22T15:13:31.908Z,58.1
2018-08-22T15:14:33.311Z,58.1
2018-08-22T15:15:34.933Z,57.8
2018-08-22T15:16:36.341Z,58.4
2018-08-22T15:17:38.092Z,58.3
2018-08-22T15:18:39.500Z,59.4
2018-08-22T15:19:40.949Z,59.5
2018-08-22T15:20:42.540Z,58.6
2018-08-22T15:21:44.030Z,57.9
2018-08-22T15:22:45.412Z,58.5
2018-08-22T15:23:47.070Z,58.8
2018-08-22T15:24:48.476Z,58.4
2018-08-22T15:25:50.157Z,58.5
2018-08-22T15:26:51.556Z,58.6
2018-08-22T15:27:53.239Z,59.2
2018-08-22T15:28:54.696Z,59.6
2018-08-22T15:29:56.124Z,59.5
2018-08-22T15:30:57.766Z,60.7
2018-08-22T15:31:59.174Z,60.4
2018-08-22T15:33:00.577Z,60.2
2018-08-22T15:34:02.093Z,60.8
2018-08-22T15:35:03.546Z,60.2
2018-08-22T15:36:05.201Z,60.5
2018-08-22T15:37:06.605Z,60.5
2018-08-22T15:38:08.273Z,60.4
2018-08-22T15:39:09.675Z,60.2
2018-08-22T15:40:11.086Z,61.2
2018-08-22T15:41:12.656Z,60.9
2018-08-22T15:42:14.005Z,61.7
2018-08-22T15:43:15.454Z,61.6
2018-08-22T15:44:17.131Z,61.6
2018-08-22T15:45:18.541Z,62.5
2018-08-22T15:46:20.199Z,62.0
2018-08-22T15:47:21.675Z,61.8
2018-08-22T15:48:23.281Z,60.7
2018-08-22T15:49:24.685Z,58.6
2018-08-22T15:50:26.090Z,58.2
2018-08-22T15:51:27.808Z,58.8
2018-08-22T15:52:29.214Z,59.3
2018-08-22T15:53:30.622Z,60.6
2018-08-22T15:54:32.134Z,61.6
2018-08-22T15:55:33.578Z,61.7
2018-08-22T15:56:34.993Z,61.6
2018-08-22T15:57:36.656Z,61.5
2018-08-22T15:58:38.060Z,61.6
2018-08-22T15:59:39.467Z,61.2
2018-08-22T16:00:40.981Z,61.0
2018-08-22T16:01:42.386Z,61.6
2018-08-22T16:02:44.072Z,61.1
2018-08-22T16:03:45.520Z,61.8
2018-08-22T16:04:46.930Z,61.5
2018-08-22T16:05:48.587Z,61.5
2018-08-22T16:06:49.997Z,61.8
2018-08-22T16:07:51.404Z,61.8
2018-08-22T16:08:53.322Z,62.0
2018-08-22T16:09:54.742Z,62.0
2018-08-22T16:10:56.149Z,61.9
2018-08-22T16:11:57.651Z,62.3
2018-08-22T16:12:59.050Z,61.8
2018-08-22T16:14:00.456Z,61.7
2018-08-22T16:15:01.967Z,62.0
2018-08-22T16:16:03.368Z,62.7
2018-08-22T16:17:05.045Z,62.1
2018-08-22T16:18:06.455Z,62.8
2018-08-22T16:19:07.925Z,63.7
2018-08-22T16:20:09.357Z,63.0
2018-08-22T16:21:11.011Z,63.5
2018-08-22T16:22:12.419Z,64.2
2018-08-22T16:23:14.096Z,64.0
2018-08-22T16:24:15.667Z,64.3
2018-08-22T16:25:17.225Z,64.2
2018-08-22T16:26:18.590Z,64.0
2018-08-22T16:27:20.278Z,64.3
2018-08-22T16:28:21.759Z,64.1
2018-08-22T16:29:23.082Z,65.1
2018-08-22T16:30:24.642Z,65.2
2018-08-22T16:31:25.996Z,64.8
2018-08-22T16:32:27.401Z,65.1
2018-08-22T16:33:28.921Z,65.0
2018-08-22T16:34:30.312Z,65.2
2018-08-22T16:35:31.723Z,65.3
2018-08-22T16:36:33.234Z,65.0
2018-08-22T16:37:35.045Z,64.9
2018-08-22T16:38:36.524Z,64.7
2018-08-22T16:39:37.929Z,64.3
2018-08-22T16:40:39.339Z,65.5
2018-08-22T16:41:40.848Z,65.0
2018-08-22T16:42:42.249Z,65.6
2018-08-22T16:43:44.656Z,65.6
2018-08-22T16:44:46.192Z,65.8
2018-08-22T16:45:48.119Z,65.7
2018-08-22T16:46:49.683Z,65.7
2018-08-22T16:47:51.090Z,66.0
2018-08-22T16:48:52.768Z,65.6
2018-08-22T16:49:54.175Z,66.0
2018-08-22T16:50:55.858Z,66.8
2018-08-22T16:51:57.259Z,67.2
2018-08-22T16:52:58.736Z,67.2
2018-08-22T16:54:00.140Z,67.4
2018-08-22T16:55:01.617Z,67.4
2018-08-22T16:56:03.023Z,67.4
2018-08-22T16:57:04.498Z,67.4
2018-08-22T16:58:05.923Z,67.7
2018-08-22T16:59:07.582Z,67.2
2018-08-22T17:00:09.020Z,67.5
2018-08-22T17:01:10.422Z,67.9
2018-08-22T17:02:11.903Z,67.1
2018-08-22T17:03:13.309Z,67.4
2018-08-22T17:04:14.719Z,67.1
2018-08-22T17:05:16.226Z,67.5
2018-08-22T17:06:17.629Z,67.8
2018-08-22T17:07:19.043Z,67.3
2018-08-22T17:08:20.594Z,67.6
2018-08-22T17:09:21.991Z,67.8
2018-08-22T17:10:23.395Z,67.2
2018-08-22T17:11:25.286Z,68.1
2018-08-22T17:12:26.693Z,67.5
2018-08-22T17:13:28.365Z,68.0
2018-08-22T17:14:29.768Z,68.1
2018-08-22T17:15:31.233Z,68.5
2018-08-22T17:16:32.890Z,68.6
2018-08-22T17:17:34.294Z,68.3
2018-08-22T17:18:35.710Z,68.7
2018-08-22T17:19:37.212Z,68.8
2018-08-22T17:20:38.617Z,69.1
2018-08-22T17:21:40.087Z,68.9
2018-08-22T17:22:41.879Z,69.3
2018-08-22T17:23:43.378Z,69.4
2018-08-22T17:24:44.793Z,69.1
2018-08-22T17:25:46.263Z,68.8
2018-08-22T17:26:47.667Z,68.7
2018-08-22T17:27:49.529Z,68.6
2018-08-22T17:28:50.939Z,69.0
2018-08-22T17:29:52.436Z,69.3
2018-08-22T17:30:53.841Z,69.7
2018-08-22T17:31:55.340Z,69.2
2018-08-22T17:32:56.742Z,69.4
2018-08-22T17:33:58.394Z,69.5
2018-08-22T17:34:59.813Z,70.0
2018-08-22T17:36:01.284Z,69.8
2018-08-22T17:37:03.063Z,69.7
2018-08-22T17:38:04.572Z,70.2
2018-08-22T17:39:05.978Z,69.7
2018-08-22T17:40:07.459Z,69.8
2018-08-22T17:41:08.858Z,69.7
2018-08-22T17:42:10.277Z,69.6
2018-08-22T17:43:11.775Z,69.8
2018-08-22T17:44:13.180Z,70.6
2018-08-22T17:45:14.583Z,70.8
2018-08-22T17:46:16.097Z,70.4
2018-08-22T17:47:17.505Z,70.2
2018-08-22T17:48:18.915Z,70.7
2018-08-22T17:49:20.419Z,71.2
2018-08-22T17:50:21.872Z,70.9
2018-08-22T17:51:23.277Z,71.4
2018-08-22T17:52:25.118Z,70.9
2018-08-22T17:53:26.520Z,70.9
2018-08-22T17:54:28.033Z,71.1
2018-08-22T17:55:29.446Z,71.4
2018-08-22T17:56:30.811Z,71.9
2018-08-22T17:57:32.351Z,72.1
2018-08-22T17:58:33.748Z,72.1
2018-08-22T17:59:35.189Z,71.6
2018-08-22T18:00:36.679Z,71.8
2018-08-22T18:01:38.075Z,72.0
2018-08-22T18:02:39.477Z,71.9
2018-08-22T18:03:40.994Z,71.8
2018-08-22T18:04:42.391Z,71.5
2018-08-22T18:05:43.794Z,71.6
2018-08-22T18:06:45.316Z,71.9
2018-08-22T18:07:46.717Z,72.2
2018-08-22T18:08:48.197Z,72.4
2018-08-22T18:09:49.599Z,71.8
2018-08-22T18:10:51.075Z,72.1
2018-08-22T18:11:52.473Z,72.4
2018-08-22T18:12:53.870Z,72.2
2018-08-22T18:13:55.479Z,72.1
2018-08-22T18:14:56.819Z,72.8
2018-08-22T18:15:58.850Z,72.7
2018-08-22T18:17:00.361Z,72.8
2018-08-22T18:18:01.766Z,72.7
2018-08-22T18:19:03.416Z,73.1
2018-08-22T18:20:04.818Z,72.8
2018-08-22T18:21:06.221Z,73.2
2018-08-22T18:22:07.737Z,73.2
2018-08-22T18:23:09.140Z,73.7
2018-08-22T18:24:10.568Z,73.5
2018-08-22T18:25:12.062Z,73.9
2018-08-22T18:26:13.464Z,73.7
2018-08-22T18:27:15.330Z,73.8
2018-08-22T18:28:16.755Z,74.1
2018-08-22T18:29:18.231Z,74.5
2018-08-22T18:30:19.636Z,74.5
2018-08-22T18:31:21.110Z,74.7
2018-08-22T18:32:22.519Z,74.6
2018-08-22T18:33:23.993Z,74.6
2018-08-22T18:34:25.408Z,74.5
2018-08-22T18:35:26.871Z,74.8
2018-08-22T18:36:28.227Z,74.6
2018-08-22T18:37:29.776Z,75.4
2018-08-22T18:38:31.179Z,75.6
2018-08-22T18:39:32.843Z,75.5
2018-08-22T18:40:34.239Z,75.4
2018-08-22T18:41:35.706Z,76.1
2018-08-22T18:42:37.205Z,76.6
2018-08-22T18:43:38.606Z,76.5
2018-08-22T18:44:40.149Z,76.0
2018-08-22T18:45:41.685Z,76.8
2018-08-22T18:46:43.087Z,77.1
2018-08-22T18:47:50.621Z,77.0
2018-08-22T18:48:52.158Z,76.9
2018-08-22T18:49:53.558Z,76.9
2018-08-22T18:50:55.028Z,77.2
2018-08-22T18:51:56.733Z,77.7
2018-08-22T18:52:58.150Z,77.9
2018-08-22T18:53:59.815Z,77.4
2018-08-22T18:55:01.207Z,77.3
2018-08-22T18:56:02.939Z,78.3
2018-08-22T18:57:04.343Z,78.2
2018-08-22T18:58:05.969Z,78.2
2018-08-22T18:59:07.403Z,78.3
2018-08-22T19:00:09.073Z,78.7
2018-08-22T19:01:10.515Z,78.5
2018-08-22T19:02:12.107Z,78.3
2018-08-22T19:03:13.560Z,78.6
2018-08-22T19:04:15.190Z,78.7
2018-08-22T19:05:16.596Z,79.1
2018-08-22T19:06:18.075Z,79.2
2018-08-22T19:07:19.479Z,79.1
2018-08-22T19:08:20.991Z,79.7
2018-08-22T19:09:22.393Z,79.5
2018-08-22T19:10:24.041Z,79.7
2018-08-22T19:11:25.445Z,80.2
2018-08-22T19:12:26.923Z,79.9
2018-08-22T19:13:28.321Z,79.8
2018-08-22T19:14:29.801Z,79.9
2018-08-22T19:15:31.235Z,80.1
2018-08-22T19:16:32.682Z,80.9
2018-08-22T19:17:34.089Z,80.6
2018-08-22T19:18:35.945Z,81.3
2018-08-22T19:19:37.411Z,81.0
2018-08-22T19:20:39.169Z,81.7
2018-08-22T19:21:40.578Z,81.4
2018-08-22T19:22:42.148Z,81.1
2018-08-22T19:23:43.553Z,82.0
2018-08-22T19:24:45.028Z,81.5
2018-08-22T19:25:46.518Z,81.5
2018-08-22T19:29:26.858Z,82.0
2018-08-22T19:30:28.267Z,82.9
2018-08-22T19:31:50.272Z,83.0
2018-08-22T19:32:51.678Z,82.7
2018-08-22T19:33:53.278Z,83.4
2018-08-22T19:34:54.732Z,83.3
2018-08-22T19:35:56.489Z,83.5
2018-08-22T19:36:57.830Z,83.3
2018-08-22T19:37:59.313Z,83.6
2018-08-22T19:39:00.899Z,84.0
2018-08-22T19:40:02.320Z,83.7
2018-08-22T19:41:03.721Z,83.6
2018-08-22T19:42:05.212Z,83.9
2018-08-22T19:43:06.619Z,84.2
2018-08-22T19:44:08.058Z,84.3
2018-08-22T19:45:10.125Z,84.5
2018-08-22T19:46:11.534Z,84.9
2018-08-22T19:47:12.941Z,84.8
2018-08-22T19:48:14.509Z,85.2
2018-08-22T19:49:15.902Z,85.3
2018-08-22T19:50:17.344Z,85.8
2018-08-22T19:51:18.799Z,85.4
2018-08-22T19:52:20.199Z,85.4
2018-08-22T19:53:21.676Z,85.7
2018-08-22T19:54:23.070Z,85.6
2018-08-22T19:55:24.560Z,85.2
2018-08-22T19:56:26.024Z,86.0
2018-08-22T19:57:27.448Z,86.2
2018-08-22T19:58:28.840Z,86.4
2018-08-22T19:59:30.319Z,86.1
2018-08-22T20:00:31.728Z,86.4
2018-08-22T20:01:33.219Z,86.6
2018-08-22T20:02:34.621Z,86.8
2018-08-22T20:03:36.020Z,87.1
2018-08-22T20:04:37.560Z,87.1
2018-08-22T20:05:38.940Z,86.9
2018-08-22T20:06:40.343Z,87.1
2018-08-22T20:07:41.882Z,87.2
2018-08-22T20:08:43.279Z,88.0
2018-08-22T20:09:44.962Z,88.1
2018-08-22T20:10:46.362Z,87.7
2018-08-22T20:11:48.020Z,88.1
2018-08-22T20:12:49.422Z,88.0
2018-08-22T20:13:50.891Z,87.7
2018-08-22T20:14:52.306Z,88.1
2018-08-22T20:15:53.772Z,88.7
2018-08-22T20:16:55.561Z,88.1
2018-08-22T20:17:56.957Z,88.7
2018-08-22T20:18:58.508Z,88.8
2018-08-22T20:19:59.961Z,88.6
2018-08-22T20:21:01.356Z,89.0
2018-08-22T20:22:02.824Z,88.8
2018-08-22T20:23:04.253Z,88.4
2018-08-22T20:24:05.726Z,88.8
2018-08-22T20:25:07.170Z,88.4
2018-08-22T20:26:08.613Z,88.5
2018-08-22T20:27:10.010Z,89.1
2018-08-22T20:28:11.896Z,88.9
2018-08-22T20:29:13.305Z,89.0
2018-08-22T20:30:15.140Z,89.9
2018-08-22T20:31:16.613Z,89.4
2018-08-22T20:32:18.010Z,89.6
2018-08-22T20:33:19.795Z,89.8
2018-08-22T20:34:21.342Z,89.6
2018-08-22T20:35:22.741Z,90.5
2018-08-22T20:36:24.173Z,90.5
2018-08-22T20:37:25.661Z,90.5
2018-08-22T20:38:27.090Z,90.6
2018-08-22T20:39:28.592Z,90.4
2018-08-22T20:40:29.943Z,90.5
2018-08-22T20:41:31.421Z,91.0
2018-08-22T20:42:32.926Z,91.2
2018-08-22T20:43:34.335Z,91.0
2018-08-22T20:44:35.733Z,91.5
2018-08-22T20:45:37.258Z,91.5
2018-08-22T20:46:38.643Z,91.4